createdAt,value
2019-04-19T05:46:34.984Z,16.60
2019-04-19T05:48:50.755Z,17.00
2019-04-19T05:51:41.272Z,17.80
2019-04-19T05:53:48.157Z,18.30
2019-04-19T05:56:13.806Z,16.90
2019-04-19T05:58:55.850Z,17.80
2019-04-19T06:01:30.414Z,18.20
2019-04-19T06:03:58.595Z,18.20
2019-04-19T06:06:37.822Z,18.30
2019-04-19T06:08:45.644Z,18.40
2019-04-19T06:11:21.240Z,19.10
2019-04-19T06:13:55.862Z,19.30
2019-04-19T06:16:37.810Z,19.70
2019-04-19T06:19:11.028Z,18.10
2019-04-19T06:21:36.744Z,19.30
2019-04-19T06:24:17.948Z,20.10
2019-04-19T06:29:10.618Z,20.50
2019-04-19T06:31:48.889Z,20.60
2019-04-19T06:34:18.706Z,21.20
2019-04-19T06:36:23.119Z,21.10
2019-04-19T06:38:52.751Z,21.30
2019-04-19T06:41:25.452Z,21.80
2019-04-19T06:44:07.900Z,21.90
2019-04-19T06:46:36.125Z,20.70
2019-04-19T06:48:59.612Z,20.40
2019-04-19T06:51:31.665Z,21.40
2019-04-19T06:53:59.938Z,21.50
2019-04-19T06:56:30.079Z,21.50
2019-04-19T06:59:06.155Z,21.40
2019-04-19T07:01:33.646Z,21.30
2019-04-19T07:03:53.948Z,21.50
2019-04-19T07:06:36.250Z,21.70
2019-04-19T07:09:33.435Z,21.30
2019-04-19T07:11:46.392Z,20.60
2019-04-19T07:14:06.794Z,21.90
2019-04-19T07:16:49.875Z,23.00
2019-04-19T07:19:23.069Z,22.40
2019-04-19T07:21:48.229Z,22.50
2019-04-19T07:24:23.633Z,22.40
2019-04-19T07:26:46.809Z,21.40
2019-04-19T07:28:59.992Z,21.60
2019-04-19T07:31:30.071Z,21.80
2019-04-19T07:34:10.479Z,21.50
2019-04-19T07:36:44.622Z,21.40
2019-04-19T07:39:14.704Z,21.90
2019-04-19T07:41:46.354Z,22.60
2019-04-19T07:44:16.093Z,22.40
2019-04-19T07:47:11.424Z,22.10
2019-04-19T07:49:17.403Z,22.90
2019-04-19T07:51:54.827Z,22.80
2019-04-19T07:54:20.223Z,22.20
2019-04-19T07:57:06.336Z,23.30
2019-04-19T08:00:19.044Z,24.10
2019-04-19T08:07:43.500Z,23.40
2019-04-19T08:10:03.925Z,23.10
2019-04-19T08:12:51.923Z,22.80
2019-04-19T08:29:49.138Z,23.50
2019-04-19T08:32:13.220Z,23.70
2019-04-19T08:34:43.130Z,22.80
2019-04-19T08:37:19.777Z,23.00
2019-04-19T08:39:56.817Z,21.70
2019-04-19T08:42:30.997Z,22.40
2019-04-19T08:44:52.700Z,21.30
2019-04-19T08:47:25.317Z,21.20
2019-04-19T08:49:51.217Z,21.70
2019-04-19T08:52:27.333Z,21.20
2019-04-19T08:55:11.098Z,21.80
2019-04-19T08:57:25.496Z,21.40
2019-04-19T09:00:19.082Z,21.70
2019-04-19T09:02:38.228Z,21.80
2019-04-19T09:05:13.190Z,21.40
2019-04-19T09:07:47.323Z,22.20
2019-04-19T09:12:41.136Z,22.30
2019-04-19T09:15:12.519Z,22.30
2019-04-19T09:18:09.278Z,22.70
2019-04-19T09:20:15.666Z,23.30
2019-04-19T09:22:57.058Z,23.30
2019-04-19T09:25:28.680Z,23.10
2019-04-19T09:28:11.383Z,23.00
2019-04-19T09:30:37.942Z,23.90
2019-04-19T09:32:49.907Z,24.30
2019-04-19T09:35:21.699Z,24.30
2019-04-19T09:38:02.621Z,24.30
2019-04-19T09:40:29.361Z,23.90
2019-04-19T09:42:57.506Z,24.00
2019-04-19T09:45:20.984Z,24.60
2019-04-19T09:47:50.318Z,23.70
2019-04-19T09:50:35.908Z,23.20
2019-04-19T09:53:14.824Z,23.30
2019-04-19T09:55:53.576Z,22.80
2019-04-19T09:58:22.528Z,23.00
2019-04-19T10:00:32.357Z,23.70
2019-04-19T10:03:08.841Z,22.90
2019-04-19T10:05:32.801Z,23.90
2019-04-19T10:08:02.117Z,24.60
2019-04-19T10:10:31.229Z,24.20
2019-04-19T10:12:59.946Z,23.80
2019-04-19T10:15:30.139Z,24.10
2019-04-19T10:17:58.800Z,24.80
2019-04-19T10:20:41.042Z,24.00
2019-04-19T10:23:13.401Z,24.60
2019-04-19T10:26:20.317Z,24.30
2019-04-19T10:28:34.497Z,23.80
2019-04-19T10:31:17.618Z,24.50
2019-04-19T10:33:53.185Z,24.60
2019-04-19T10:36:16.767Z,24.60
2019-04-19T10:38:45.568Z,24.60
2019-04-19T10:41:15.642Z,24.70
2019-04-19T10:43:52.906Z,24.50
2019-04-19T10:46:15.110Z,24.60
2019-04-19T10:48:58.152Z,24.20
2019-04-19T10:51:33.304Z,24.10
2019-04-19T10:54:02.348Z,24.10
2019-04-19T10:56:38.610Z,24.30
2019-04-19T10:59:10.337Z,24.60
2019-04-19T11:01:39.129Z,24.10
2019-04-19T11:04:11.026Z,24.00
2019-04-19T11:06:39.785Z,24.50
2019-04-19T11:09:09.018Z,24.10
2019-04-19T11:11:37.778Z,23.90
2019-04-19T11:14:07.986Z,24.10
2019-04-19T11:16:39.554Z,23.80
2019-04-19T11:19:16.765Z,23.90
2019-04-19T11:21:38.488Z,23.80
2019-04-19T11:24:07.479Z,24.20
2019-04-19T11:26:37.321Z,23.80
2019-04-19T11:29:11.069Z,23.80
2019-04-19T11:31:59.881Z,24.20
2019-04-19T11:34:31.371Z,24.20
2019-04-19T11:37:00.158Z,24.80
2019-04-19T11:39:28.821Z,24.00
2019-04-19T11:41:57.392Z,23.70
2019-04-19T11:44:27.710Z,23.40
2019-04-19T11:46:56.238Z,23.10
2019-04-19T11:49:31.251Z,23.20
2019-04-19T11:51:55.321Z,23.20
2019-04-19T11:54:24.230Z,23.40
2019-04-19T11:57:02.173Z,23.40
2019-04-19T11:59:48.836Z,23.50
2019-04-19T12:02:17.821Z,23.30
2019-04-19T12:04:46.777Z,22.90
2019-04-19T12:07:16.543Z,23.10
2019-04-19T12:09:45.132Z,23.10
2019-04-19T12:12:14.896Z,23.10
2019-04-19T12:14:43.995Z,22.90
2019-04-19T12:17:13.261Z,22.80
2019-04-19T12:19:49.683Z,22.80
2019-04-19T12:22:12.900Z,22.30
2019-04-19T12:24:42.655Z,22.50
2019-04-19T12:27:11.682Z,22.80
2019-04-19T12:29:44.983Z,22.50
2019-04-19T12:32:11.742Z,22.60
2019-04-19T12:34:42.594Z,22.60
2019-04-19T12:37:11.244Z,23.00
2019-04-19T12:39:41.002Z,22.50
2019-04-19T12:42:11.384Z,22.70
2019-04-19T12:44:41.798Z,22.90
2019-04-19T12:47:11.079Z,22.90
2019-04-19T12:49:52.045Z,23.30
2019-04-19T12:52:10.194Z,23.50
2019-04-19T12:54:39.311Z,23.50
2019-04-19T12:57:08.027Z,23.20
2019-04-19T12:59:36.491Z,23.30
2019-04-19T13:02:06.593Z,23.10
2019-04-19T13:04:42.765Z,23.50
2019-04-19T13:07:13.109Z,23.30
2019-04-19T13:09:42.337Z,23.30
2019-04-19T13:12:11.095Z,23.30
2019-04-19T13:14:39.735Z,23.40
2019-04-19T13:17:08.432Z,23.30
2019-04-19T13:19:37.472Z,23.20
2019-04-19T13:22:06.100Z,23.50
2019-04-19T13:24:34.658Z,23.40
2019-04-19T13:27:03.364Z,23.30
2019-04-19T13:29:31.959Z,23.20
2019-04-19T13:32:01.800Z,23.20
2019-04-19T13:34:31.520Z,23.50
2019-04-19T13:37:11.393Z,23.70
2019-04-19T13:39:44.361Z,23.60
2019-04-19T13:42:14.898Z,23.50
2019-04-19T13:44:43.491Z,23.50
2019-04-19T13:47:12.991Z,23.60
2019-04-19T13:49:42.391Z,23.80
2019-04-19T13:52:12.488Z,23.80
2019-04-19T13:54:41.247Z,23.70
2019-04-19T13:57:10.130Z,23.70
2019-04-19T13:59:48.282Z,23.30
2019-04-19T14:02:10.582Z,23.60
2019-04-19T14:04:39.708Z,23.40
2019-04-19T14:07:09.493Z,23.40
2019-04-19T14:09:39.223Z,23.60
2019-04-19T14:12:09.122Z,23.50
2019-04-19T14:14:39.020Z,23.40
2019-04-19T14:17:07.885Z,23.30
2019-04-19T14:19:36.747Z,23.30
2019-04-19T14:22:05.363Z,23.30
2019-04-19T14:24:33.916Z,23.30
2019-04-19T14:27:04.004Z,23.20
2019-04-19T14:29:32.990Z,23.40
2019-04-19T14:32:03.077Z,23.40
2019-04-19T14:34:33.489Z,23.50
2019-04-19T14:37:02.539Z,23.40
2019-04-19T14:39:31.057Z,23.50
2019-04-19T14:41:59.601Z,23.40
2019-04-19T14:44:29.870Z,23.30
2019-04-19T14:46:58.972Z,23.40
2019-04-19T14:49:28.808Z,23.20
2019-04-19T14:51:58.046Z,23.30
2019-04-19T14:54:27.789Z,23.20
2019-04-19T14:56:56.603Z,23.40
2019-04-19T14:59:25.260Z,23.40
2019-04-19T15:02:04.884Z,23.50
2019-04-19T15:04:46.727Z,23.30
2019-04-19T15:07:16.598Z,23.30
2019-04-19T15:09:45.882Z,23.10
2019-04-19T15:12:14.488Z,23.00
2019-04-19T15:14:43.097Z,23.20
2019-04-19T15:17:11.668Z,23.10
2019-04-19T15:19:40.127Z,23.00
2019-04-19T15:22:08.726Z,23.20
2019-04-19T15:24:37.356Z,23.10
2019-04-19T15:27:07.151Z,23.10
2019-04-19T15:29:37.354Z,23.00
2019-04-19T15:32:06.353Z,23.10
2019-04-19T15:34:35.917Z,23.00
2019-04-19T15:37:04.696Z,23.00
2019-04-19T15:39:33.689Z,22.80
2019-04-19T15:42:02.779Z,22.90
2019-04-19T15:44:32.777Z,23.00
2019-04-19T15:47:04.273Z,23.10
2019-04-19T15:49:31.812Z,23.20
2019-04-19T15:52:01.813Z,23.10
2019-04-19T15:54:30.609Z,23.00
2019-04-19T15:57:00.380Z,22.70
2019-04-19T15:59:29.090Z,22.90
2019-04-19T16:02:06.155Z,22.90
2019-04-19T16:04:48.171Z,22.70
2019-04-19T16:07:28.187Z,22.70
2019-04-19T16:10:16.558Z,22.60
2019-04-19T16:12:49.467Z,22.60
2019-04-19T16:15:18.100Z,22.70
2019-04-19T16:17:47.930Z,22.70
2019-04-19T16:20:17.676Z,22.50
2019-04-19T16:22:46.386Z,22.40
2019-04-19T16:25:17.031Z,22.40
2019-04-19T16:27:46.794Z,22.40
2019-04-19T16:30:16.486Z,22.30
2019-04-19T16:32:45.501Z,22.20
2019-04-19T16:35:14.248Z,22.20
2019-04-19T16:37:42.883Z,22.20
2019-04-19T16:40:16.326Z,22.10
2019-04-19T16:42:45.481Z,22.10
2019-04-19T16:45:17.699Z,21.90
2019-04-19T16:47:47.275Z,21.90
2019-04-19T16:50:16.518Z,21.70
2019-04-19T16:52:45.202Z,21.80
2019-04-19T16:55:14.265Z,21.70
2019-04-19T16:57:42.843Z,21.60
2019-04-19T17:00:12.999Z,21.60
2019-04-19T17:02:42.979Z,21.50
2019-04-19T17:05:12.652Z,21.50
2019-04-19T17:07:41.640Z,21.50
2019-04-19T17:10:10.442Z,21.40
2019-04-19T17:12:39.662Z,21.20
2019-04-19T17:15:28.302Z,21.30
2019-04-19T17:18:16.798Z,21.20
2019-04-19T17:20:49.976Z,21.10
2019-04-19T17:23:18.916Z,21.20
2019-04-19T17:25:48.666Z,21.00
2019-04-19T17:28:17.276Z,21.00
2019-04-19T17:30:46.833Z,21.00
2019-04-19T17:33:15.349Z,20.90
2019-04-19T17:35:44.145Z,20.80
2019-04-19T17:46:08.520Z,20.60
2019-04-19T17:48:38.869Z,20.60
2019-04-19T17:51:09.624Z,20.40
2019-04-19T17:53:42.685Z,20.40
2019-04-19T17:56:09.234Z,20.40
2019-04-19T17:58:38.205Z,20.30
2019-04-19T18:01:08.318Z,20.20
2019-04-19T18:03:37.413Z,20.20
2019-04-19T18:06:06.063Z,20.10
2019-04-19T18:08:36.153Z,19.90
2019-04-19T18:11:05.499Z,19.90
2019-04-19T18:13:35.225Z,19.80
2019-04-19T18:16:04.658Z,19.70
2019-04-19T18:18:41.247Z,19.60
2019-04-19T18:21:04.336Z,19.40
2019-04-19T18:23:43.074Z,19.30
2019-04-19T18:26:06.505Z,19.20
2019-04-19T18:28:42.546Z,19.10
2019-04-19T18:31:09.531Z,18.80
2019-04-19T18:33:47.974Z,18.50
2019-04-19T18:36:22.183Z,17.90
2019-04-19T18:38:53.742Z,17.80
2019-04-19T18:41:23.183Z,17.80
2019-04-19T18:44:09.106Z,17.60
2019-04-19T18:46:28.945Z,17.50
2019-04-19T18:48:57.927Z,17.20
2019-04-19T18:51:36.062Z,17.10
2019-04-19T18:54:09.886Z,16.90
2019-04-19T18:56:28.737Z,16.70
2019-04-19T18:59:07.934Z,16.70
2019-04-19T19:01:33.060Z,16.60
2019-04-19T19:04:00.068Z,16.60
2019-04-19T19:06:36.746Z,16.50
2019-04-19T19:09:04.652Z,16.50
2019-04-19T19:11:29.954Z,16.40
2019-04-19T19:14:03.015Z,16.30
2019-04-19T19:16:32.594Z,16.00
2019-04-19T19:19:02.634Z,15.70
2019-04-19T19:21:40.664Z,15.70
2019-04-19T19:24:29.163Z,15.60
2019-04-19T19:26:49.234Z,15.40
2019-04-19T19:29:04.643Z,15.50
2019-04-19T19:31:34.858Z,15.30
2019-04-19T19:34:03.855Z,15.40
2019-04-19T19:36:38.349Z,15.30
2019-04-19T19:39:11.343Z,15.20
2019-04-19T19:42:38.945Z,15.10
2019-04-19T19:44:35.081Z,14.90
2019-04-19T19:47:29.421Z,14.80
2019-04-19T19:49:49.013Z,14.70
2019-04-19T19:52:18.743Z,14.70
2019-04-19T19:54:59.036Z,14.60
2019-04-19T19:57:27.782Z,14.70
2019-04-19T19:59:45.576Z,14.60
2019-04-19T20:02:23.543Z,14.50
2019-04-19T20:04:44.052Z,14.60
2019-04-19T20:07:20.693Z,14.50
2019-04-19T20:09:56.544Z,14.40
2019-04-19T20:12:26.373Z,14.50
2019-04-19T20:14:56.155Z,14.60
2019-04-19T20:17:21.476Z,14.60
2019-04-19T20:19:51.598Z,14.50
2019-04-19T20:22:21.154Z,14.50
2019-04-19T20:25:02.300Z,14.60
2019-04-19T20:27:33.472Z,14.40
2019-04-19T20:29:59.967Z,14.30
2019-04-19T20:32:26.546Z,14.30
2019-04-19T20:35:06.900Z,14.20
2019-04-19T20:37:33.123Z,14.10
2019-04-19T20:40:07.211Z,14.00
2019-04-19T20:42:55.435Z,13.80
2019-04-19T20:45:10.615Z,13.80
2019-04-19T20:47:35.987Z,13.70
2019-04-19T20:50:21.634Z,13.70
2019-04-19T20:52:51.693Z,13.60
2019-04-19T20:55:35.595Z,13.70
2019-04-19T20:58:03.409Z,13.50
2019-04-19T21:00:32.791Z,13.40
2019-04-19T21:02:59.264Z,13.30
2019-04-19T21:05:34.735Z,13.30
2019-04-19T21:08:04.910Z,13.40
2019-04-19T21:10:31.786Z,13.40
2019-04-19T21:13:02.987Z,13.40
2019-04-19T21:15:34.934Z,13.50
2019-04-19T21:18:01.312Z,13.40
2019-04-19T21:20:31.273Z,13.40
2019-04-19T21:23:07.098Z,13.40
2019-04-19T21:25:38.656Z,13.30
2019-04-19T21:28:03.175Z,13.50
2019-04-19T21:30:31.704Z,13.60
2019-04-19T21:33:04.822Z,13.50
2019-04-19T21:35:31.691Z,13.60
2019-04-19T21:38:05.732Z,13.90
2019-04-19T21:40:36.180Z,13.80
2019-04-19T21:43:05.493Z,13.90
2019-04-19T21:45:40.080Z,13.90
2019-04-19T21:48:03.355Z,13.80
2019-04-19T21:50:39.464Z,13.80
2019-04-19T21:53:07.601Z,13.60
2019-04-19T21:55:37.434Z,13.60
2019-04-19T21:58:08.918Z,13.50
2019-04-19T22:00:39.083Z,13.60
2019-04-19T22:03:13.875Z,13.60
2019-04-19T22:05:39.196Z,13.40
2019-04-19T22:08:08.087Z,13.30
2019-04-19T22:10:41.839Z,13.30
2019-04-19T22:13:08.365Z,13.40
2019-04-19T22:15:43.962Z,13.30
2019-04-19T22:18:11.706Z,13.10
2019-04-19T22:20:40.911Z,13.00
2019-04-19T22:23:12.655Z,12.90
2019-04-19T22:25:53.662Z,12.90
2019-04-19T22:28:17.362Z,12.90
2019-04-19T22:30:49.943Z,13.00
2019-04-19T22:33:16.522Z,13.10
2019-04-19T22:35:52.004Z,13.00
2019-04-19T22:38:19.244Z,13.00
2019-04-19T22:40:48.998Z,13.00
2019-04-19T22:43:23.108Z,13.00
2019-04-19T22:45:57.402Z,13.10
2019-04-19T22:48:23.621Z,13.00
2019-04-19T22:53:46.326Z,13.30
2019-04-19T22:56:34.703Z,13.40
2019-04-19T23:02:20.499Z,13.30
2019-04-19T23:05:06.858Z,13.40
2019-04-19T23:09:09.880Z,13.30
2019-04-19T23:10:06.661Z,13.00
2019-04-19T23:12:37.624Z,12.90
2019-04-19T23:15:14.530Z,12.70
2019-04-19T23:17:41.124Z,12.60
2019-04-19T23:20:09.530Z,12.50
2019-04-19T23:22:44.266Z,12.30
2019-04-19T23:25:11.668Z,12.20
2019-04-19T23:27:56.220Z,12.10
2019-04-19T23:33:39.879Z,12.00
2019-04-19T23:36:14.471Z,11.90
2019-04-19T23:42:33.270Z,11.80
2019-04-19T23:45:03.974Z,11.70
2019-04-19T23:47:37.758Z,11.70
2019-04-19T23:50:04.037Z,11.60
2019-04-19T23:52:55.707Z,11.40
